Time;durP1;ratioP1;P1;durP2;ratioP2;P2;SDS_P1;SDS_P2;PMS_P1;PMS_P2;Temp;Humidity;BMP_temperature;BMP_pressure;BME280_temperature;BME280_humidity;BME280_pressure;Samples;Min_cycle;Max_cycle;Signal;HPM_P1;HPM_P2
2022/11/27 00:00:43;;;;;;;37.88;15.57;;;18.30;80.00;;;18.78;45.25;99996.94;5012858;28;20044;-74
2022/11/27 00:03:29;;;;;;;27.35;13.93;;;18.30;79.80;;;18.76;44.97;100002.72;5015205;28;20037;-74
2022/11/27 00:05:57;;;;;;;26.73;14.65;;;18.30;79.70;;;18.79;45.52;99996.63;5026413;28;20053;-73
2022/11/27 00:08:26;;;;;;;27.45;13.20;;;18.30;80.50;;;18.79;45.62;100006.81;5026639;28;20051;-73
2022/11/27 00:10:52;;;;;;;28.17;14.68;;;18.40;80.80;;;18.78;45.55;100010.69;5010460;28;20187;-74
2022/11/27 00:13:18;;;;;;;27.17;13.73;;;18.40;80.50;;;18.78;45.39;100005.19;5013211;28;20060;-74
2022/11/27 00:15:44;;;;;;;23.38;13.68;;;18.40;80.00;;;18.78;44.99;99994.19;5025565;28;20037;-73
2022/11/27 00:18:10;;;;;;;27.80;14.85;;;18.30;79.80;;;18.76;45.11;99997.22;5008357;28;20057;-73
2022/11/27 00:20:36;;;;;;;28.73;13.02;;;18.40;79.70;;;18.74;45.32;99995.84;5013329;28;20084;-73
2022/11/27 00:23:03;;;;;;;23.20;13.18;;;18.40;80.00;;;18.77;45.92;99998.03;5031388;28;20038;-74
2022/11/27 00:25:29;;;;;;;31.60;16.58;;;18.30;80.60;;;18.76;45.69;99990.91;5012880;28;20136;-73
2022/11/27 00:27:55;;;;;;;30.10;14.68;;;18.30;80.70;;;18.76;45.25;99996.41;5027091;28;20049;-74
2022/11/27 00:30:21;;;;;;;21.52;12.57;;;18.30;80.90;;;18.73;45.04;99994.25;5010977;28;20044;-74
2022/11/27 00:32:47;;;;;;;32.33;14.00;;;18.30;80.00;;;18.72;45.21;99981.59;5028432;28;20046;-74
2022/11/27 00:35:14;;;;;;;28.63;13.27;;;18.30;79.80;;;18.70;45.25;99987.41;5029709;28;20060;-74
2022/11/27 00:37:40;;;;;;;28.48;13.98;;;18.30;79.70;;;18.69;45.67;99994.00;5028740;28;20115;-74
2022/11/27 00:40:06;;;;;;;28.10;14.15;;;18.20;80.40;;;18.74;45.53;100002.16;5026783;28;20042;-73
2022/11/27 00:42:33;;;;;;;24.00;13.05;;;18.30;80.70;;;18.74;45.76;99996.66;5028095;28;20038;-73
2022/11/27 00:44:59;;;;;;;27.88;13.40;;;18.20;80.80;;;18.74;45.15;99995.84;5011210;28;20047;-74
2022/11/27 00:47:25;;;;;;;30.10;14.45;;;18.20;80.10;;;18.72;45.33;99984.34;5034769;28;20095;-74
2022/11/27 00:49:51;;;;;;;24.20;11.88;;;18.20;80.00;;;18.69;45.08;99988.50;5028820;28;20042;-73
2022/11/27 00:52:17;;;;;;;21.00;11.75;;;18.30;79.90;;;18.68;45.11;99989.63;5029148;28;20045;-73
2022/11/27 00:54:43;;;;;;;26.27;12.60;;;18.20;79.70;;;18.70;45.40;99992.06;5012588;28;20060;-73
2022/11/27 00:57:09;;;;;;;25.35;13.27;;;18.20;80.40;;;18.71;45.60;99994.53;5013307;28;20042;-74
2022/11/27 00:59:35;;;;;;;30.02;13.98;;;18.30;80.70;;;18.70;45.50;99987.41;5028941;28;20044;-74
2022/11/27 01:02:01;;;;;;;23.48;13.07;;;18.20;80.60;;;18.70;45.24;99992.91;5027787;28;20052;-74
2022/11/27 01:04:27;;;;;;;26.60;12.65;;;18.30;80.00;;;18.68;45.25;99986.06;4997605;28;20041;-74
2022/11/27 01:06:54;;;;;;;30.10;14.50;;;18.30;79.80;;;18.65;45.12;99991.03;5012151;28;20057;-74
2022/11/27 01:09:19;;;;;;;29.20;12.23;;;18.30;79.70;;;18.67;45.55;99990.72;5026373;28;20037;-74
2022/11/27 01:11:46;;;;;;;29.98;13.73;;;18.30;80.20;;;18.69;45.72;99991.25;5040656;28;20042;-74
2022/11/27 01:14:16;;;;;;;26.73;12.40;;;18.20;80.50;;;18.69;45.79;99984.94;5022096;28;20057;-74
2022/11/27 01:16:43;;;;;;;24.53;12.57;;;18.30;80.70;;;18.70;45.18;99981.06;4995668;28;20482;-74
2022/11/27 01:19:09;;;;;;;22.85;13.15;;;18.20;80.00;;;18.66;45.19;99976.16;5008843;28;20295;-74
2022/11/27 01:21:36;;;;;;;23.48;11.77;;;18.20;80.10;;;18.65;45.19;99980.06;5010492;28;20095;-74
2022/11/27 01:24:03;;;;;;;22.13;13.02;;;18.20;79.80;;;18.71;45.04;99972.53;5011992;28;20045;-74
2022/11/27 01:26:29;;;;;;;25.65;13.18;;;18.20;79.60;;;18.74;45.14;99977.44;4994558;28;20052;-74
2022/11/27 01:28:56;;;;;;;27.63;12.80;;;18.20;80.10;;;18.76;45.50;99974.41;5010228;28;20065;-74
2022/11/27 01:31:26;;;;;;;28.38;12.52;;;18.30;80.40;;;18.75;45.04;99983.72;5012750;28;20049;-73
2022/11/27 01:33:56;;;;;;;20.55;10.90;;;18.30;80.20;;;18.77;45.12;99976.84;5006560;28;20107;-74
2022/11/27 01:36:23;;;;;;;;;;;18.30;79.70;;;18.78;44.76;99974.94;5012413;28;20045;-73
2022/11/27 01:38:49;;;;;;;21.95;12.27;;;18.30;79.60;;;18.77;44.76;99976.84;5024616;28;19924;-74
2022/11/27 01:41:20;;;;;;;22.30;12.75;;;18.40;79.50;;;18.82;45.06;99971.28;5027059;28;20102;-74
2022/11/27 01:44:21;;;;;;;21.73;12.00;;;18.40;79.80;;;18.75;44.89;99968.13;5026824;28;20428;-74
2022/11/27 01:46:53;;;;;;;22.20;12.37;;;18.40;79.90;;;18.78;45.34;99972.19;5003636;28;20127;-73
2022/11/27 01:49:35;;;;;;;22.73;11.88;;;18.40;79.80;;;18.78;45.09;99973.00;5012430;28;20040;-74
2022/11/27 01:52:28;;;;;;;19.75;11.15;;;18.50;79.40;;;18.85;44.67;99980.84;5011087;28;20053;-74
2022/11/27 01:55:17;;;;;;;18.75;11.82;;;18.50;79.30;;;18.85;44.95;99973.44;5027424;28;20532;-74
2022/11/27 01:58:12;;;;;;;21.92;11.77;;;18.40;79.30;;;18.90;45.06;99977.22;5013243;28;20037;-74
2022/11/27 02:00:38;;;;;;;24.98;12.32;;;18.40;80.40;;;18.91;44.76;99978.88;5015121;28;20038;-73
2022/11/27 02:03:05;;;;;;;22.40;13.38;;;18.40;79.70;;;18.92;45.00;99978.53;5024898;28;20421;-74
2022/11/27 02:05:32;;;;;;;23.70;13.05;;;18.40;79.80;;;18.90;44.94;99977.22;5024937;28;20050;-73
2022/11/27 02:08:05;;;;;;;25.27;13.10;;;18.40;79.70;;;18.93;44.80;99968.34;5027603;28;20044;-74
2022/11/27 02:11:03;;;;;;;19.05;11.00;;;18.40;79.80;;;18.98;44.50;99976.50;5012220;28;20165;-74
2022/11/27 02:13:48;;;;;;;21.50;11.30;;;18.40;79.50;;;19.04;44.63;99969.84;5026930;28;20037;-73
2022/11/27 02:16:42;;;;;;;21.48;11.82;;;18.40;79.90;;;19.03;44.87;99970.94;5013530;28;20604;-73
2022/11/27 02:19:59;;;;;;;27.48;12.55;;;18.40;80.00;;;19.08;44.87;99981.84;5014621;28;20041;-73
2022/11/27 02:23:39;;;;;;;23.42;11.75;;;18.40;80.20;;;19.08;44.59;99984.59;5045598;28;20062;-74
2022/11/27 02:26:11;;;;;;;20.10;10.88;;;18.40;80.00;;;19.09;44.54;99989.00;4980359;28;20058;-73
2022/11/27 02:28:59;;;;;;;22.65;11.38;;;18.40;79.70;;;19.14;44.39;99980.66;5019889;28;20090;-73
2022/11/27 02:31:40;;;;;;;23.52;11.73;;;18.50;79.60;;;19.14;44.57;99979.84;5025178;28;20042;-73
2022/11/27 02:34:25;;;;;;;19.08;10.80;;;18.40;79.80;;;19.18;44.67;99980.84;5025827;28;20057;-74
2022/11/27 02:37:20;;;;;;;17.95;10.63;;;18.50;80.20;;;19.20;44.70;99986.88;5043881;28;20068;-73
2022/11/27 02:40:02;;;;;;;17.42;9.82;;;18.50;80.10;;;19.18;44.44;99987.16;5012372;28;20045;-73
2022/11/27 02:42:32;;;;;;;22.52;10.98;;;18.50;79.80;;;19.22;44.45;99988.22;5030499;28;20068;-73
2022/11/27 02:45:12;;;;;;;20.00;11.10;;;18.60;79.80;;;19.25;44.19;99993.09;5010824;28;20049;-74
2022/11/27 02:47:40;;;;;;;21.23;11.88;;;18.50;79.70;;;19.23;44.56;99989.00;5011541;28;20052;-74
2022/11/27 02:50:09;;;;;;;20.42;10.85;;;18.50;79.90;;;19.28;44.96;99992.50;5010500;28;20052;-74
2022/11/27 02:52:35;;;;;;;18.70;11.30;;;18.50;80.10;;;19.27;44.47;100001.88;5011520;28;20041;-74
2022/11/27 02:55:05;;;;;;;17.50;10.15;;;18.50;80.00;;;19.29;44.64;99996.88;5009836;28;20099;-73
2022/11/27 02:57:31;;;;;;;18.25;10.48;;;18.50;80.00;;;19.30;44.45;99997.69;5028587;28;20041;-73
2022/11/27 02:59:57;;;;;;;22.35;11.20;;;18.50;79.70;;;19.31;44.23;99999.34;5011137;28;20049;-74
2022/11/27 03:02:31;;;;;;;19.63;11.52;;;18.60;79.80;;;19.32;44.34;99995.47;5025557;28;20090;-73
2022/11/27 03:04:59;;;;;;;17.00;10.35;;;18.60;79.80;;;19.36;44.35;99995.66;5013722;28;20180;-74
2022/11/27 03:07:38;;;;;;;18.52;10.82;;;18.60;80.00;;;19.33;44.55;99994.34;5007498;28;20041;-73
2022/11/27 03:10:35;;;;;;;19.85;10.60;;;18.60;80.00;;;19.32;44.34;100006.47;5007977;28;20057;-74
2022/11/27 03:13:01;;;;;;;19.88;10.32;;;18.60;80.00;;;19.36;44.33;100006.66;5033702;28;20482;-74
2022/11/27 03:15:35;;;;;;;16.77;10.27;;;18.60;79.90;;;19.36;44.26;99998.41;5014247;28;20415;-73
2022/11/27 03:18:49;;;;;;;22.85;11.98;;;18.60;79.70;;;19.36;44.27;100004.75;5016213;28;20034;-74
2022/11/27 03:21:41;;;;;;;18.20;10.75;;;18.60;79.80;;;19.39;44.36;100003.34;4989082;28;20074;-74
2022/11/27 03:24:08;;;;;;;15.55;9.90;;;18.60;80.20;;;19.37;44.61;100000.06;5012677;28;20050;-73
2022/11/27 03:26:37;;;;;;;14.95;9.20;;;18.70;80.10;;;19.36;44.22;100003.91;5011636;28;20038;-73
2022/11/27 03:29:06;;;;;;;16.88;10.35;;;18.60;80.00;;;19.39;44.39;99997.84;5013484;28;20045;-73
2022/11/27 03:31:32;;;;;;;18.15;11.10;;;18.70;79.90;;;19.34;44.19;100001.50;5013299;28;20030;-74
2022/11/27 03:33:58;;;;;;;18.33;10.18;;;18.60;79.70;;;19.38;44.37;99998.94;5010839;28;20037;-73
2022/11/27 03:36:24;;;;;;;20.67;11.40;;;18.70;79.70;;;19.40;44.50;100002.19;5014164;28;20160;-74
2022/11/27 03:38:51;;;;;;;17.70;9.52;;;18.60;80.00;;;19.39;44.42;100003.34;5014502;28;20473;-74
2022/11/27 03:41:40;;;;;;;17.98;10.07;;;18.70;80.10;;;19.40;44.54;99996.69;4998421;28;20034;-74
2022/11/27 03:44:12;;;;;;;15.00;9.82;;;18.70;79.80;;;19.37;44.47;100000.88;5032773;28;20053;-73
2022/11/27 03:47:28;;;;;;;13.77;8.88;;;18.70;79.60;;;19.36;44.39;100003.91;5030909;28;20392;-73
2022/11/27 03:50:21;;;;;;;17.80;10.55;;;18.70;79.60;;;19.38;44.26;100001.69;5030171;28;20047;-73
2022/11/27 03:52:50;;;;;;;16.73;9.65;;;18.80;79.60;;;19.38;44.16;99998.94;5028635;28;20409;-74
2022/11/27 03:55:45;;;;;;;16.48;9.80;;;18.80;79.50;;;19.38;44.10;99997.00;5031664;28;20056;-73
2022/11/27 03:58:22;;;;;;;18.27;9.43;;;18.70;79.20;;;19.36;44.12;100003.91;5028867;28;20049;-74
2022/11/27 04:00:49;;;;;;;11.00;8.52;;;18.70;79.00;;;19.37;43.83;100009.13;5019428;28;20096;-74
2022/11/27 04:03:22;;;;;;;15.85;8.45;;;18.70;78.90;;;19.39;44.05;100009.66;5013299;28;20480;-74
2022/11/27 04:05:49;;;;;;;13.80;8.35;;;18.70;79.30;;;19.41;43.99;100007.41;5000554;28;20065;-73
2022/11/27 04:08:14;;;;;;;14.10;9.85;;;18.70;79.30;;;19.37;44.25;100002.81;5017611;28;20038;-73
2022/11/27 04:10:41;;;;;;;17.50;9.65;;;18.80;80.00;;;19.37;43.88;100008.31;5031588;28;20465;-74
2022/11/27 04:13:07;;;;;;;16.27;9.88;;;18.70;78.80;;;19.37;43.92;100006.38;5031443;28;20051;-74
2022/11/27 04:15:33;;;;;;;14.75;8.95;;;18.70;78.70;;;19.35;43.87;100013.31;5029101;28;20091;-74
2022/11/27 04:17:59;;;;;;;14.65;8.40;;;18.70;78.70;;;19.36;43.75;100012.16;5026733;28;20531;-74
2022/11/27 04:20:25;;;;;;;15.05;8.68;;;18.70;78.70;;;19.38;43.90;100013.50;5027739;28;20033;-75
2022/11/27 04:22:51;;;;;;;14.65;8.57;;;18.70;78.90;;;19.37;44.03;100011.88;5030201;28;20578;-74
2022/11/27 04:25:17;;;;;;;16.63;9.13;;;18.70;78.90;;;19.36;43.98;100006.66;5029222;28;20033;-74
2022/11/27 04:27:43;;;;;;;15.25;9.15;;;18.80;78.60;;;19.35;43.85;100005.03;5011885;28;20551;-74
2022/11/27 04:30:10;;;;;;;14.10;8.85;;;18.80;78.60;;;19.35;43.56;100007.81;5013352;28;20500;-74
2022/11/27 04:32:36;;;;;;;15.05;10.02;;;18.70;78.50;;;19.33;43.46;100015.53;5018229;28;20116;-74
2022/11/27 04:35:03;;;;;;;14.20;9.48;;;18.70;78.40;;;19.33;43.77;100010.84;5027508;28;20050;-74
2022/11/27 04:37:29;;;;;;;14.00;8.75;;;18.70;78.70;;;19.33;43.73;100013.59;5029954;28;20048;-74
2022/11/27 04:39:55;;;;;;;12.85;8.90;;;18.70;78.60;;;19.32;43.82;100009.22;5012877;28;20045;-74
2022/11/27 04:42:21;;;;;;;11.93;8.25;;;18.70;78.60;;;19.33;43.52;100007.28;5028522;28;20371;-74
2022/11/27 04:44:48;;;;;;;13.70;7.65;;;18.80;78.50;;;19.32;43.47;100006.47;5012298;28;20050;-74
2022/11/27 04:47:14;;;;;;;13.15;9.05;;;18.70;78.20;;;19.30;43.57;100001.25;5029078;28;20033;-74
2022/11/27 04:49:41;;;;;;;15.10;8.13;;;18.70;78.20;;;19.32;43.34;100002.91;5029348;28;20034;-75
2022/11/27 04:52:07;;;;;;;14.30;8.35;;;18.70;78.10;;;19.32;43.34;99997.41;4996187;28;20053;-74
2022/11/27 04:54:33;;;;;;;13.40;7.68;;;18.70;78.30;;;19.31;43.62;99996.59;5026232;28;20045;-74
2022/11/27 04:56:59;;;;;;;11.27;7.88;;;18.70;78.30;;;19.30;43.41;99992.19;5025875;28;20045;-74
2022/11/27 04:59:25;;;;;;;15.90;8.93;;;18.70;78.20;;;19.28;43.62;99988.94;5013373;28;20037;-74
2022/11/27 05:01:51;;;;;;;9.30;6.75;;;18.80;78.20;;;19.28;43.42;99992.50;5010834;28;20171;-74
2022/11/27 05:04:17;;;;;;;11.70;7.20;;;18.80;77.90;;;19.30;43.20;100003.19;4997569;28;20417;-74
2022/11/27 05:06:43;;;;;;;9.68;7.85;;;18.70;77.40;;;19.30;43.24;100006.75;4997297;28;20042;-74
2022/11/27 05:09:10;;;;;;;12.00;7.53;;;18.70;77.40;;;19.29;43.35;100002.38;5013563;28;20436;-74
2022/11/27 05:11:35;;;;;;;10.63;7.25;;;18.70;78.00;;;19.29;43.48;100007.88;5027799;28;20037;-74
2022/11/27 05:14:13;;;;;;;16.08;8.13;;;18.70;78.10;;;19.27;43.53;100001.88;5029954;28;20052;-74
2022/11/27 05:16:40;;;;;;;11.13;7.95;;;18.70;78.00;;;19.25;43.51;99998.59;5028130;28;20774;-74
2022/11/27 05:19:09;;;;;;;16.15;8.63;;;18.70;77.80;;;19.25;43.14;100003.28;5012549;28;20037;-74
2022/11/27 05:21:36;;;;;;;10.73;6.72;;;18.70;77.50;;;19.25;43.20;100006.03;5028981;28;20037;-74
2022/11/27 05:24:03;;;;;;;10.63;7.45;;;18.70;77.20;;;19.25;43.49;100004.09;4996423;28;20496;-74
2022/11/27 05:26:29;;;;;;;13.77;9.10;;;18.70;77.50;;;19.26;43.42;100005.75;5027990;28;20045;-73
2022/11/27 05:28:55;;;;;;;13.25;8.07;;;18.70;77.90;;;19.23;43.22;100011.84;5028204;28;20401;-73
2022/11/27 05:31:21;;;;;;;11.32;7.43;;;18.70;77.70;;;19.25;43.23;100020.59;5024682;28;20445;-73
2022/11/27 05:33:47;;;;;;;9.18;7.15;;;18.70;77.40;;;19.23;43.26;100014.63;5027670;28;20049;-73
2022/11/27 05:36:13;;;;;;;9.88;7.03;;;18.70;77.40;;;19.22;42.94;100012.97;5027095;28;20125;-73
2022/11/27 05:38:40;;;;;;;10.75;7.20;;;18.70;77.30;;;19.21;43.05;100018.75;5012804;28;20056;-73
2022/11/27 05:41:05;;;;;;;7.93;6.70;;;18.70;77.20;;;19.24;43.51;100012.66;5027509;28;20065;-72
2022/11/27 05:43:32;;;;;;;12.63;6.80;;;18.70;77.90;;;19.24;43.30;100018.97;5026527;28;20048;-72
2022/11/27 05:45:58;;;;;;;12.82;7.07;;;18.70;77.90;;;19.21;43.14;100016.84;4996450;28;20385;-72
2022/11/27 05:48:24;;;;;;;11.00;7.80;;;18.70;77.30;;;19.22;43.25;100012.16;5028631;28;20068;-72
2022/11/27 05:50:50;;;;;;;11.27;7.25;;;18.70;77.20;;;19.20;43.13;100012.44;5011092;28;20103;-72
2022/11/27 05:53:17;;;;;;;10.32;7.15;;;18.70;77.30;;;19.22;43.02;100007.47;5028300;28;20037;-73
2022/11/27 05:55:43;;;;;;;11.30;7.22;;;18.70;77.20;;;19.17;43.12;100004.00;5044567;28;20504;-73
2022/11/27 05:58:09;;;;;;;10.73;6.80;;;18.70;77.20;;;19.14;43.17;100010.09;5031547;28;20473;-73
2022/11/27 06:00:35;;;;;;;12.63;7.50;;;18.70;77.20;;;19.20;42.83;100004.19;5027630;28;20039;-73
2022/11/27 06:03:01;;;;;;;13.27;8.40;;;18.70;77.20;;;19.21;43.15;99997.59;5029073;28;20038;-72
2022/11/27 06:05:27;;;;;;;11.20;6.43;;;18.70;77.20;;;19.21;43.08;99997.59;5037468;28;20045;-72
2022/11/27 06:07:54;;;;;;;9.10;6.18;;;18.70;77.20;;;19.18;43.24;100000.91;5024778;28;20160;-72
2022/11/27 06:10:20;;;;;;;10.75;7.85;;;18.70;77.40;;;19.17;43.29;100004.78;5030722;28;20405;-73
2022/11/27 06:12:46;;;;;;;9.30;7.22;;;18.70;77.20;;;19.18;43.43;100003.66;5028716;28;20707;-72
2022/11/27 06:15:12;;;;;;;11.45;7.60;;;18.80;77.30;;;19.17;43.22;100010.31;5010168;28;20038;-72
2022/11/27 06:17:38;;;;;;;12.27;7.43;;;18.70;77.20;;;19.16;42.99;100008.69;5010248;28;20037;-72
2022/11/27 06:20:06;;;;;;;8.40;5.95;;;18.70;77.20;;;19.19;43.38;100001.75;5011560;28;20067;-72
2022/11/27 06:22:32;;;;;;;9.63;6.32;;;18.70;77.30;;;19.13;43.34;100005.69;5028418;28;20386;-72
2022/11/27 06:24:59;;;;;;;11.32;6.93;;;18.70;77.50;;;19.11;43.48;100003.25;5029316;28;20053;-72
2022/11/27 06:27:25;;;;;;;9.88;6.72;;;18.70;77.50;;;19.09;43.34;100002.75;5029510;28;20406;-72
2022/11/27 06:29:51;;;;;;;10.60;7.20;;;18.70;77.20;;;19.15;43.43;100004.28;5023307;28;20086;-72
2022/11/27 06:32:18;;;;;;;13.65;7.15;;;18.70;77.20;;;19.15;43.08;100004.28;5042732;28;20041;-72
2022/11/27 06:34:43;;;;;;;14.73;8.02;;;18.70;77.30;;;19.13;43.38;100005.69;5026543;28;20527;-73
2022/11/27 06:37:10;;;;;;;9.63;6.63;;;18.70;77.20;;;19.14;43.31;100002.66;5021306;28;20049;-73
2022/11/27 06:39:35;;;;;;;10.32;6.80;;;18.70;77.30;;;19.15;43.71;100004.28;5007239;28;20425;-73
2022/11/27 06:42:02;;;;;;;10.07;7.15;;;18.60;77.90;;;19.07;43.55;100000.28;5026389;28;20744;-73
2022/11/27 06:44:28;;;;;;;8.98;6.18;;;18.70;77.50;;;19.05;43.45;100008.00;5008666;28;20053;-73
2022/11/27 06:46:56;;;;;;;9.20;6.18;;;18.70;77.20;;;19.05;43.48;100005.25;5021950;28;20050;-73
2022/11/27 06:49:22;;;;;;;10.82;7.45;;;18.70;77.20;;;19.12;43.21;100007.63;5029384;28;20053;-73
2022/11/27 06:51:49;;;;;;;9.10;6.35;;;18.70;77.20;;;19.06;43.61;99997.84;5027932;28;20102;-73
2022/11/27 06:54:15;;;;;;;8.43;6.25;;;18.60;77.50;;;19.12;43.65;100004.88;5030080;28;20048;-73
2022/11/27 06:56:42;;;;;;;13.18;6.75;;;18.60;77.90;;;19.11;43.91;99996.91;5025931;28;20051;-73
2022/11/27 06:59:11;;;;;;;8.68;6.20;;;18.60;78.00;;;19.03;43.59;99990.19;5011767;28;20046;-73
2022/11/27 07:01:37;;;;;;;8.02;5.90;;;18.70;77.90;;;19.04;43.51;99992.63;5015773;28;20048;-73
2022/11/27 07:04:04;;;;;;;11.68;7.28;;;18.60;77.30;;;19.02;43.52;99986.63;5027768;28;20045;-73
2022/11/27 07:06:30;;;;;;;10.55;6.43;;;18.70;77.20;;;19.07;43.69;99992.03;5029804;28;20416;-73
2022/11/27 07:08:56;;;;;;;10.05;6.80;;;18.70;77.50;;;19.05;43.62;99997.00;5030398;28;20052;-73
2022/11/27 07:11:25;;;;;;;7.97;6.80;;;18.60;77.90;;;19.07;43.74;99996.72;5024290;28;20095;-73
2022/11/27 07:13:54;;;;;;;9.90;6.30;;;18.60;77.80;;;19.05;43.47;99991.50;5013415;28;20579;-74
2022/11/27 07:16:21;;;;;;;8.32;5.93;;;18.60;77.80;;;19.05;43.77;99998.94;5026814;28;20049;-73
2022/11/27 07:18:52;;;;;;;8.30;5.80;;;18.70;77.70;;;18.99;43.45;100000.16;5013377;28;20548;-73
2022/11/27 07:21:18;;;;;;;8.55;6.32;;;18.60;77.20;;;19.08;43.35;100009.34;5029367;28;20045;-73
2022/11/27 07:23:44;;;;;;;11.30;6.70;;;18.60;77.10;;;19.07;43.71;100010.47;4996183;28;20068;-73
2022/11/27 07:26:13;;;;;;;12.23;6.88;;;18.70;77.70;;;19.06;43.61;100001.41;5025183;28;20037;-74
2022/11/27 07:28:42;;;;;;;10.10;6.90;;;18.60;77.70;;;19.09;43.68;100006.31;5026913;28;20037;-73
2022/11/27 07:31:09;;;;;;;8.60;6.28;;;18.60;77.90;;;19.00;43.74;100007.28;5026269;28;20104;-73
2022/11/27 07:33:35;;;;;;;8.68;6.38;;;18.60;77.70;;;19.01;43.58;100012.50;5011406;28;20045;-78
2022/11/27 07:36:07;;;;;;;9.75;6.90;;;18.70;77.50;;;19.09;43.32;100016.50;5013307;28;20041;-75
2022/11/27 07:38:33;;;;;;;8.40;6.20;;;18.70;77.20;;;19.07;43.55;100013.22;5026759;28;20041;-73
2022/11/27 07:41:00;;;;;;;7.57;6.22;;;18.70;77.20;;;19.00;43.84;100012.78;5009961;28;20049;-72
2022/11/27 07:43:27;;;;;;;9.77;6.25;;;18.70;78.00;;;19.06;43.77;100012.41;4996619;28;20046;-72
2022/11/27 07:45:56;;;;;;;12.23;6.97;;;18.70;78.00;;;19.01;43.60;100006.19;5009872;28;20042;-72
2022/11/27 07:48:22;;;;;;;9.10;6.95;;;18.60;77.70;;;18.94;43.72;100011.25;5025112;28;20156;-72
2022/11/27 07:50:49;;;;;;;8.35;6.28;;;18.60;77.40;;;18.98;43.69;100018.59;5022366;28;20061;-72
2022/11/27 07:53:15;;;;;;;9.48;6.13;;;18.60;77.30;;;19.07;43.48;100030.53;5026202;28;20049;-72
2022/11/27 07:55:41;;;;;;;10.68;7.45;;;18.60;77.20;;;19.06;43.53;100028.91;5009783;28;20053;-72
2022/11/27 07:58:07;;;;;;;10.63;6.93;;;18.60;77.50;;;18.98;43.87;100026.00;5012057;28;20065;-72
2022/11/27 08:00:34;;;;;;;9.50;6.50;;;18.60;77.80;;;19.07;43.73;100026.97;5026392;28;20053;-72
2022/11/27 08:03:00;;;;;;;8.60;6.50;;;18.60;78.00;;;19.01;43.59;100022.69;5023593;28;20038;-72
2022/11/27 08:05:26;;;;;;;13.00;6.93;;;18.60;77.60;;;19.05;43.42;100020.94;5027110;28;20477;-72
2022/11/27 08:07:52;;;;;;;9.80;6.45;;;18.60;77.20;;;19.07;43.40;100021.47;5022901;28;20656;-72
2022/11/27 08:10:19;;;;;;;8.70;6.18;;;18.60;77.30;;;19.07;43.22;100021.47;5021209;28;20049;-72
2022/11/27 08:12:45;;;;;;;8.05;6.13;;;18.60;77.10;;;19.01;43.72;100012.50;5025164;28;20046;-72
2022/11/27 08:15:11;;;;;;;7.70;6.22;;;18.60;77.60;;;19.02;43.73;100010.56;5024941;28;20045;-72
2022/11/27 08:17:38;;;;;;;9.57;6.25;;;18.60;77.90;;;19.05;43.65;100009.94;5010896;28;20040;-72
2022/11/27 08:20:06;;;;;;;9.45;6.95;;;18.60;77.80;;;19.04;43.58;100000.88;5026445;28;20038;-72
2022/11/27 08:22:32;;;;;;;11.13;6.10;;;18.60;77.40;;;19.09;43.33;100006.31;5027763;28;20033;-72
2022/11/27 08:24:58;;;;;;;8.40;5.97;;;18.60;77.10;;;19.10;43.17;100004.38;5027333;28;20050;-72
2022/11/27 08:27:24;;;;;;;9.95;7.18;;;18.60;77.10;;;19.07;43.14;100003.03;5007585;28;20502;-72
2022/11/27 08:29:50;;;;;;;13.38;6.82;;;18.60;77.10;;;19.03;43.79;100001.19;5010404;28;20531;-72
2022/11/27 08:32:16;;;;;;;8.57;6.00;;;18.60;77.70;;;19.03;43.82;100007.53;5026646;28;20045;-77
2022/11/27 08:34:42;;;;;;;8.55;6.15;;;18.70;78.00;;;19.08;43.55;100006.59;5029798;28;20061;-75
2022/11/27 08:37:10;;;;;;;11.95;6.20;;;18.70;77.40;;;19.11;43.29;100019.75;5022787;28;20195;-72
2022/11/27 08:39:36;;;;;;;9.30;6.40;;;18.70;77.20;;;19.10;43.20;100012.63;5027420;28;20477;-72
2022/11/27 08:42:02;;;;;;;9.00;5.55;;;18.70;77.20;;;19.08;43.17;100017.59;5027324;28;20042;-72
2022/11/27 08:44:28;;;;;;;8.52;6.30;;;18.60;77.10;;;19.06;43.64;100011.59;5029222;28;20493;-73
2022/11/27 08:46:54;;;;;;;9.73;6.47;;;18.60;77.50;;;19.08;43.54;100014.84;5043767;28;20053;-72
2022/11/27 08:49:21;;;;;;;7.72;6.03;;;18.70;77.70;;;19.07;43.42;100016.78;5009763;28;20037;-73
2022/11/27 08:51:47;;;;;;;10.32;6.05;;;18.70;78.00;;;19.11;43.47;100019.75;5040925;28;20044;-72
2022/11/27 08:54:13;;;;;;;8.73;6.15;;;18.70;77.30;;;19.08;43.47;100010.19;5026549;28;20671;-72
2022/11/27 08:56:39;;;;;;;9.05;6.25;;;18.70;77.30;;;19.13;43.31;100009.25;5025656;28;20125;-72
2022/11/27 08:59:05;;;;;;;8.45;6.45;;;18.70;77.20;;;19.13;43.26;100005.69;5028429;28;20044;-72
2022/11/27 09:01:31;;;;;;;8.20;5.80;;;18.70;77.20;;;19.14;43.61;100007.34;5009489;28;20033;-72
2022/11/27 09:03:58;;;;;;;7.80;6.55;;;18.70;77.80;;;19.13;43.60;100012.00;5025449;28;20099;-72
2022/11/27 09:06:29;;;;;;;9.43;6.25;;;18.70;77.90;;;19.09;43.72;100006.31;5027313;28;20101;-72
2022/11/27 09:08:56;;;;;;;11.40;6.13;;;18.60;78.00;;;19.13;43.25;100005.69;5025689;28;20038;-72
2022/11/27 09:11:25;;;;;;;10.73;6.68;;;18.70;77.50;;;19.09;43.39;100011.00;5025621;28;20098;-72
2022/11/27 09:13:52;;;;;;;7.88;5.82;;;18.70;77.20;;;19.09;43.35;100011.00;4994756;28;20050;-72
2022/11/27 09:16:19;;;;;;;7.65;6.03;;;18.60;77.20;;;19.11;43.26;100010.69;5024433;28;20095;-73
2022/11/27 09:18:47;;;;;;;7.85;6.28;;;18.70;77.20;;;19.10;43.63;100012.63;5010810;28;20107;-73
2022/11/27 09:21:14;;;;;;;12.32;6.72;;;18.70;78.70;;;19.12;43.75;100009.56;5008609;28;20514;-73
2022/11/27 09:23:41;;;;;;;8.13;6.53;;;18.70;78.00;;;19.08;43.79;100014.84;5010435;28;20034;-72
2022/11/27 09:26:10;;;;;;;9.02;6.00;;;18.60;78.50;;;19.09;43.67;100014.56;5025475;28;20044;-73
2022/11/27 09:28:36;;;;;;;12.25;6.63;;;18.70;77.80;;;19.07;43.37;100000.28;5025362;28;20041;-72
2022/11/27 09:31:04;;;;;;;10.82;6.43;;;18.60;77.40;;;19.09;43.25;100011.81;5024103;28;20575;-72
2022/11/27 09:33:32;;;;;;;11.60;6.10;;;18.60;77.10;;;19.06;43.74;100012.41;5027366;28;20113;-72
2022/11/27 09:36:01;;;;;;;9.70;6.30;;;18.60;77.90;;;19.05;43.67;100008.00;5007508;28;20470;-75
2022/11/27 09:38:28;;;;;;;11.88;6.22;;;18.70;78.20;;;19.08;43.95;100003.84;5026217;28;20041;-72
2022/11/27 09:41:01;;;;;;;7.10;5.82;;;18.60;78.40;;;19.09;43.74;100002.75;5011094;28;20175;-72
2022/11/27 09:43:30;;;;;;;7.88;6.20;;;18.60;77.80;;;19.10;43.69;100012.63;5027689;28;20097;-72
2022/11/27 09:46:02;;;;;;;10.07;6.03;;;18.70;77.80;;;19.12;43.21;100002.13;5026543;28;20053;-72
2022/11/27 09:48:38;;;;;;;12.65;7.03;;;18.70;77.30;;;19.10;43.79;100004.38;5009433;28;20068;-72
2022/11/27 09:51:12;;;;;;;6.97;5.80;;;18.70;78.00;;;19.08;43.76;100009.34;5026277;28;20045;-72
2022/11/27 09:53:59;;;;;;;10.15;5.70;;;18.60;78.10;;;19.07;44.27;100005.78;5007631;28;20088;-72
2022/11/27 09:56:25;;;;;;;9.75;5.50;;;18.70;78.70;;;19.10;43.71;99998.88;5013673;28;20049;-73
2022/11/27 09:58:58;;;;;;;10.90;6.15;;;18.70;78.10;;;19.10;43.76;100001.63;5026059;28;20374;-75
2022/11/27 10:01:26;;;;;;;10.02;6.70;;;18.60;77.80;;;19.09;43.80;100005.50;5024283;28;20144;-74
2022/11/27 10:03:53;;;;;;;10.40;6.30;;;18.60;77.90;;;19.07;43.50;100004.97;5009799;28;20077;-74
2022/11/27 10:06:42;;;;;;;10.52;6.25;;;18.60;77.70;;;19.06;44.07;100001.41;5026026;28;20053;-74
2022/11/27 10:09:34;;;;;;;10.57;6.50;;;18.70;78.30;;;19.07;44.11;99993.97;5009873;28;20072;-76
2022/11/27 10:12:45;;;;;;;11.93;6.88;;;18.70;78.40;;;19.09;43.49;99991.75;5022376;28;20132;-77
2022/11/27 10:15:36;;;;;;;9.70;7.10;;;18.70;78.00;;;19.07;43.80;99988.47;5024923;28;20061;-77
2022/11/27 10:18:36;;;;;;;11.65;6.18;;;18.60;78.00;;;19.09;43.92;99994.50;5020684;28;20049;-76
2022/11/27 10:21:21;;;;;;;8.02;6.32;;;18.60;77.80;;;19.09;43.94;99989.81;5010807;28;20056;-76